createdAt,value
2023-04-22T00:00:12.425Z,0.00
2023-04-22T00:01:12.415Z,0.00
2023-04-22T00:02:12.507Z,0.00
2023-04-22T00:03:12.489Z,0.00
2023-04-22T00:04:12.533Z,0.00
2023-04-22T00:05:12.456Z,0.00
2023-04-22T00:06:12.358Z,0.00
2023-04-22T00:07:12.347Z,0.00
2023-04-22T00:08:12.324Z,0.00
2023-04-22T00:09:12.358Z,0.00
2023-04-22T00:10:12.296Z,0.00
2023-04-22T00:11:12.288Z,0.00
2023-04-22T00:12:12.272Z,0.00
2023-04-22T00:13:12.263Z,0.00
2023-04-22T00:14:12.248Z,0.00
2023-04-22T00:15:12.231Z,0.00
2023-04-22T00:16:12.285Z,0.00
2023-04-22T00:17:12.215Z,0.00
2023-04-22T00:18:12.196Z,0.00
2023-04-22T00:19:12.662Z,0.00
2023-04-22T00:20:12.168Z,0.00
2023-04-22T00:21:12.173Z,0.00
2023-04-22T00:22:12.143Z,0.00
2023-04-22T00:23:12.142Z,0.00
2023-04-22T00:24:12.120Z,0.00
2023-04-22T00:25:12.145Z,0.00
2023-04-22T00:26:12.096Z,0.00
2023-04-22T00:27:12.086Z,0.00
2023-04-22T00:28:12.070Z,0.00
2023-04-22T00:29:12.056Z,0.00
2023-04-22T00:30:12.038Z,0.00
2023-04-22T00:31:12.084Z,0.00
2023-04-22T00:32:12.015Z,0.00
2023-04-22T00:34:11.990Z,0.00
2023-04-22T00:35:11.977Z,0.00
2023-04-22T00:36:11.974Z,0.00
2023-04-22T00:37:11.956Z,0.00
2023-04-22T00:38:11.938Z,0.00
2023-04-22T00:39:11.929Z,0.00
2023-04-22T00:40:11.911Z,0.00
2023-04-22T00:41:11.928Z,0.00
2023-04-22T00:42:11.891Z,0.00
2023-04-22T00:43:11.875Z,0.00
2023-04-22T00:44:11.862Z,0.00
2023-04-22T00:45:11.847Z,0.00
2023-04-22T00:46:11.876Z,0.00
2023-04-22T00:47:11.981Z,0.00
2023-04-22T00:48:11.820Z,0.00
2023-04-22T00:49:11.806Z,0.00
2023-04-22T00:50:11.797Z,0.00
2023-04-22T00:51:11.774Z,0.00
2023-04-22T00:52:11.757Z,0.00
2023-04-22T00:54:11.732Z,0.00
2023-04-22T00:55:11.760Z,0.00
2023-04-22T00:56:11.712Z,0.00
2023-04-22T00:57:11.718Z,0.00
2023-04-22T00:58:11.677Z,0.00
2023-04-22T00:59:11.670Z,0.00
2023-04-22T01:00:11.678Z,0.00
2023-04-22T01:01:11.722Z,0.00
2023-04-22T01:02:11.700Z,0.00
2023-04-22T01:03:11.762Z,0.00
2023-04-22T01:04:11.679Z,0.00
2023-04-22T01:05:11.589Z,0.00
2023-04-22T01:06:11.586Z,0.00
2023-04-22T01:07:11.570Z,0.00
2023-04-22T01:08:11.555Z,0.00
2023-04-22T01:09:11.547Z,0.00
2023-04-22T01:10:11.526Z,0.00
2023-04-22T01:11:11.525Z,0.00
2023-04-22T01:12:11.513Z,0.00
2023-04-22T01:13:11.515Z,0.00
2023-04-22T01:14:11.480Z,0.00
2023-04-22T01:15:11.467Z,0.00
2023-04-22T01:16:11.482Z,0.00
2023-04-22T01:17:11.445Z,0.00
2023-04-22T01:18:11.424Z,0.00
2023-04-22T01:19:11.416Z,0.00
2023-04-22T01:20:11.411Z,0.00
2023-04-22T01:21:11.396Z,0.00
2023-04-22T01:22:11.389Z,0.00
2023-04-22T01:23:11.377Z,0.00
2023-04-22T01:24:11.355Z,0.00
2023-04-22T01:25:11.344Z,0.00
2023-04-22T01:26:11.329Z,0.00
2023-04-22T01:27:11.316Z,0.00
2023-04-22T01:28:11.310Z,0.00
2023-04-22T01:29:11.332Z,0.00
2023-04-22T01:30:11.280Z,0.00
2023-04-22T01:31:11.264Z,0.00
2023-04-22T01:32:11.340Z,0.00
2023-04-22T01:33:11.308Z,0.00
2023-04-22T01:34:11.232Z,0.00
2023-04-22T01:35:11.217Z,0.00
2023-04-22T01:36:12.908Z,0.00
2023-04-22T01:37:11.187Z,0.00
2023-04-22T01:38:11.173Z,0.00
2023-04-22T01:39:11.163Z,0.00
2023-04-22T01:40:11.154Z,0.00
2023-04-22T01:41:11.138Z,0.00
2023-04-22T01:42:11.119Z,0.00
2023-04-22T01:43:11.108Z,0.00
2023-04-22T01:44:11.098Z,0.00
2023-04-22T01:45:11.108Z,0.00
2023-04-22T01:46:11.121Z,0.00
2023-04-22T01:47:11.060Z,0.00
2023-04-22T01:48:11.198Z,0.00
2023-04-22T01:49:11.035Z,0.00
2023-04-22T01:50:11.027Z,0.00
2023-04-22T01:51:11.007Z,0.00
2023-04-22T01:52:11.152Z,0.00
2023-04-22T01:53:10.980Z,0.00
2023-04-22T01:54:10.968Z,0.00
2023-04-22T01:55:10.957Z,0.00
2023-04-22T01:56:10.955Z,0.00
2023-04-22T01:57:10.928Z,0.00
2023-04-22T01:58:10.921Z,0.00
2023-04-22T01:59:10.913Z,0.00
2023-04-22T02:00:10.942Z,0.00
2023-04-22T02:01:10.951Z,0.00
2023-04-22T02:02:10.963Z,0.00
2023-04-22T02:03:10.988Z,0.00
2023-04-22T02:04:10.838Z,0.00
2023-04-22T02:05:10.921Z,0.00
2023-04-22T02:06:10.816Z,0.00
2023-04-22T02:07:10.804Z,0.00
2023-04-22T02:08:10.856Z,0.00
2023-04-22T02:09:10.781Z,0.00
2023-04-22T02:10:10.762Z,0.00
2023-04-22T02:11:10.754Z,0.00
2023-04-22T02:12:10.756Z,0.00
2023-04-22T02:13:10.741Z,0.00
2023-04-22T02:14:10.723Z,0.00
2023-04-22T02:15:10.716Z,0.00
2023-04-22T02:16:10.709Z,0.00
2023-04-22T02:17:10.709Z,0.00
2023-04-22T02:18:10.662Z,0.00
2023-04-22T02:19:10.653Z,0.00
2023-04-22T02:20:10.660Z,0.00
2023-04-22T02:21:10.637Z,0.00
2023-04-22T02:22:10.607Z,0.00
2023-04-22T02:23:10.604Z,0.00
2023-04-22T02:24:10.583Z,0.00
2023-04-22T02:25:10.578Z,0.00
2023-04-22T02:26:10.558Z,0.00
2023-04-22T02:27:10.551Z,0.00
2023-04-22T02:28:10.534Z,0.00
2023-04-22T02:29:10.525Z,0.00
2023-04-22T02:30:10.508Z,0.00
2023-04-22T02:31:10.535Z,0.00
2023-04-22T02:32:10.488Z,0.00
2023-04-22T02:33:10.498Z,0.00
2023-04-22T02:34:10.456Z,0.00
2023-04-22T02:35:10.441Z,0.00
2023-04-22T02:36:10.435Z,0.00
2023-04-22T02:37:10.424Z,0.00
2023-04-22T02:38:10.414Z,0.00
2023-04-22T02:39:10.394Z,0.00
2023-04-22T02:40:10.409Z,0.00
2023-04-22T02:41:10.368Z,0.00
2023-04-22T02:42:10.383Z,0.00
2023-04-22T02:43:10.342Z,0.00
2023-04-22T02:44:10.328Z,0.00
2023-04-22T02:45:10.345Z,0.00
2023-04-22T02:46:10.401Z,0.00
2023-04-22T02:47:10.395Z,0.00
2023-04-22T02:48:10.344Z,0.00
2023-04-22T02:49:10.294Z,0.00
2023-04-22T02:50:10.257Z,0.00
2023-04-22T02:51:10.297Z,0.00
2023-04-22T02:52:10.229Z,0.00
2023-04-22T02:53:10.227Z,0.00
2023-04-22T02:54:10.222Z,0.00
2023-04-22T02:55:10.206Z,0.00
2023-04-22T02:56:10.199Z,0.00
2023-04-22T02:57:10.174Z,0.00
2023-04-22T02:58:10.162Z,0.00
2023-04-22T02:59:10.137Z,0.00
2023-04-22T03:00:10.130Z,0.00
2023-04-22T03:01:10.180Z,0.00
2023-04-22T03:02:10.199Z,0.00
2023-04-22T03:03:10.292Z,0.00
2023-04-22T03:04:10.169Z,0.00
2023-04-22T03:05:10.096Z,0.00
2023-04-22T03:06:10.066Z,0.00
2023-04-22T03:07:10.042Z,0.00
2023-04-22T03:08:10.030Z,0.00
2023-04-22T03:09:10.011Z,0.00
2023-04-22T03:10:10.001Z,0.00
2023-04-22T03:11:09.989Z,0.00
2023-04-22T03:12:09.981Z,0.00
2023-04-22T03:13:09.964Z,0.00
2023-04-22T03:14:09.955Z,0.00
2023-04-22T03:15:09.950Z,0.00
2023-04-22T03:16:09.949Z,0.00
2023-04-22T03:17:09.915Z,0.00
2023-04-22T03:18:09.905Z,0.00
2023-04-22T03:19:09.896Z,0.00
2023-04-22T03:20:09.889Z,0.00
2023-04-22T03:21:09.887Z,0.00
2023-04-22T03:22:09.865Z,0.00
2023-04-22T03:23:09.845Z,0.00
2023-04-22T03:24:09.832Z,0.00
2023-04-22T03:25:09.819Z,0.00
2023-04-22T03:26:09.805Z,0.00
2023-04-22T03:27:09.799Z,0.00
2023-04-22T03:28:09.781Z,0.00
2023-04-22T03:29:09.772Z,0.00
2023-04-22T03:30:09.760Z,0.00
2023-04-22T03:31:09.743Z,0.00
2023-04-22T03:32:09.842Z,0.00
2023-04-22T03:33:09.738Z,0.00
2023-04-22T03:34:09.707Z,0.00
2023-04-22T03:35:09.693Z,0.00
2023-04-22T03:36:09.682Z,0.00
2023-04-22T03:37:09.700Z,0.00
2023-04-22T03:38:09.664Z,0.00
2023-04-22T03:39:09.648Z,0.00
2023-04-22T03:40:09.630Z,0.00
2023-04-22T03:41:09.618Z,0.00
2023-04-22T03:42:09.605Z,0.00
2023-04-22T03:43:09.599Z,0.00
2023-04-22T03:44:09.582Z,0.00
2023-04-22T03:45:09.576Z,0.00
2023-04-22T03:46:09.600Z,0.00
2023-04-22T03:47:09.549Z,0.00
2023-04-22T03:48:09.639Z,0.00
2023-04-22T03:49:09.521Z,0.00
2023-04-22T03:50:09.511Z,0.00
2023-04-22T03:51:09.493Z,0.00
2023-04-22T03:52:09.479Z,4.00
2023-04-22T03:53:09.492Z,4.00
2023-04-22T03:54:09.452Z,0.00
2023-04-22T03:55:09.435Z,4.00
2023-04-22T03:56:09.428Z,4.00
2023-04-22T03:57:09.415Z,4.00
2023-04-22T03:58:09.405Z,4.00
2023-04-22T03:59:09.388Z,4.00
2023-04-22T04:00:09.384Z,8.00
2023-04-22T04:01:09.369Z,8.00
2023-04-22T04:02:09.424Z,12.00
2023-04-22T04:03:09.631Z,12.00
2023-04-22T04:04:09.659Z,12.00
2023-04-22T04:05:09.401Z,12.00
2023-04-22T04:06:09.304Z,16.00
2023-04-22T04:07:09.290Z,16.00
2023-04-22T04:08:09.274Z,20.00
2023-04-22T04:09:09.288Z,24.00
2023-04-22T04:10:09.271Z,28.00
2023-04-22T04:11:09.237Z,28.00
2023-04-22T04:12:09.226Z,36.00
2023-04-22T04:13:09.211Z,40.00
2023-04-22T04:14:09.201Z,44.00
2023-04-22T04:15:09.195Z,52.00
2023-04-22T04:16:09.236Z,64.00
2023-04-22T04:17:09.221Z,72.00
2023-04-22T04:18:09.215Z,76.00
2023-04-22T04:19:09.144Z,84.00
2023-04-22T04:20:09.124Z,92.00
2023-04-22T04:21:09.115Z,100.00
2023-04-22T04:22:09.118Z,108.00
2023-04-22T04:23:09.101Z,116.00
2023-04-22T04:24:09.081Z,124.00
2023-04-22T04:25:09.088Z,132.00
2023-04-22T04:26:09.053Z,140.00
2023-04-22T04:27:09.035Z,148.00
2023-04-22T04:28:09.032Z,160.00
2023-04-22T04:29:09.013Z,164.00
2023-04-22T04:30:09.001Z,176.00
2023-04-22T04:31:09.037Z,184.00
2023-04-22T04:32:08.977Z,192.00
2023-04-22T04:33:09.058Z,200.00
2023-04-22T04:34:08.950Z,212.00
2023-04-22T04:35:08.952Z,224.00
2023-04-22T04:36:08.952Z,236.00
2023-04-22T04:37:08.908Z,256.00
2023-04-22T04:38:08.895Z,272.00
2023-04-22T04:39:08.894Z,292.00
2023-04-22T04:40:08.873Z,312.00
2023-04-22T04:41:08.897Z,336.00
2023-04-22T04:42:08.898Z,360.00
2023-04-22T04:43:08.902Z,388.00
2023-04-22T04:44:08.872Z,420.00
2023-04-22T04:45:08.864Z,456.00
2023-04-22T04:46:08.880Z,496.00
2023-04-22T04:47:08.837Z,540.00
2023-04-22T04:48:08.853Z,584.00
2023-04-22T04:49:08.759Z,624.00
2023-04-22T04:50:08.755Z,660.00
2023-04-22T04:51:08.735Z,692.00
2023-04-22T04:52:08.719Z,728.00
2023-04-22T04:53:08.708Z,780.00
2023-04-22T04:54:08.703Z,840.00
2023-04-22T04:55:08.687Z,896.00
2023-04-22T04:56:08.670Z,956.00
2023-04-22T04:57:08.678Z,1020.00
2023-04-22T04:58:08.643Z,1084.00
2023-04-22T04:59:08.628Z,1148.00
2023-04-22T05:00:08.645Z,1224.00
2023-04-22T05:01:08.607Z,1300.00
2023-04-22T05:02:08.729Z,1380.00
2023-04-22T05:03:08.755Z,1452.00
2023-04-22T05:04:08.861Z,1524.00
2023-04-22T05:05:08.555Z,1592.00
2023-04-22T05:06:08.586Z,1656.00
2023-04-22T05:07:08.534Z,1716.00
2023-04-22T05:08:08.524Z,1768.00
2023-04-22T05:09:08.504Z,1816.00
2023-04-22T05:10:08.500Z,1868.00
2023-04-22T05:12:08.481Z,1968.00
2023-04-22T05:13:08.482Z,2004.00
2023-04-22T05:14:08.448Z,2032.00
2023-04-22T05:15:08.432Z,2056.00
2023-04-22T05:16:08.455Z,2076.00
2023-04-22T05:17:08.415Z,2112.00
2023-04-22T05:18:08.453Z,2160.00
2023-04-22T05:19:08.385Z,2224.00
2023-04-22T05:20:08.384Z,2308.00
2023-04-22T05:21:08.362Z,2404.00
2023-04-22T05:22:08.352Z,2516.00
2023-04-22T05:23:08.343Z,2628.00
2023-04-22T05:24:08.325Z,2736.00
2023-04-22T05:25:08.308Z,2836.00
2023-04-22T05:26:08.295Z,2924.00
2023-04-22T05:27:08.300Z,3020.00
2023-04-22T05:28:08.272Z,3132.00
2023-04-22T05:29:08.282Z,3292.00
2023-04-22T05:30:08.249Z,3516.00
2023-04-22T05:31:08.231Z,3748.00
2023-04-22T05:32:08.334Z,4184.00
2023-04-22T05:33:08.302Z,4636.00
2023-04-22T05:34:08.252Z,6052.00
2023-04-22T05:35:08.206Z,6856.00
2023-04-22T05:36:08.277Z,6864.00
2023-04-22T05:37:08.251Z,6792.00
2023-04-22T05:38:08.220Z,5956.00
2023-04-22T05:39:08.127Z,6004.00
2023-04-22T05:40:08.135Z,5828.00
2023-04-22T05:41:08.096Z,6940.00
2023-04-22T05:42:08.090Z,11792.00
2023-04-22T05:43:08.072Z,10708.00
2023-04-22T05:44:08.073Z,9808.00
2023-04-22T05:45:08.072Z,11940.00
2023-04-22T05:46:08.136Z,15040.00
2023-04-22T05:47:08.037Z,15616.00
2023-04-22T05:48:08.140Z,12932.00
2023-04-22T05:49:08.008Z,8748.00
2023-04-22T05:50:08.023Z,7556.00
2023-04-22T05:51:07.984Z,6268.00
2023-04-22T05:52:07.969Z,6324.00
2023-04-22T05:53:07.944Z,6596.00
2023-04-22T05:54:07.935Z,6760.00
2023-04-22T05:55:07.918Z,7048.00
2023-04-22T05:56:07.902Z,7216.00
2023-04-22T05:57:07.892Z,7820.00
2023-04-22T05:58:07.878Z,7676.00
2023-04-22T05:59:07.878Z,7752.00
2023-04-22T06:00:07.869Z,7700.00
2023-04-22T06:01:07.968Z,7392.00
2023-04-22T06:02:07.916Z,7328.00
2023-04-22T06:03:08.136Z,7628.00
2023-04-22T06:04:08.138Z,8060.00
2023-04-22T06:05:08.129Z,7712.00
2023-04-22T06:06:07.780Z,7124.00
2023-04-22T06:07:07.756Z,7168.00
2023-04-22T06:08:07.744Z,7480.00
2023-04-22T06:09:07.730Z,7408.00
2023-04-22T06:10:07.734Z,7560.00
2023-04-22T06:11:07.706Z,8928.00
2023-04-22T06:12:07.697Z,10260.00
2023-04-22T06:13:07.682Z,11808.00
2023-04-22T06:14:07.675Z,11668.00
2023-04-22T06:15:07.651Z,9836.00
2023-04-22T06:17:07.660Z,11000.00
2023-04-22T06:18:07.625Z,15004.00
2023-04-22T06:19:07.959Z,17312.00
2023-04-22T06:20:07.591Z,17568.00
2023-04-22T06:21:07.584Z,17376.00
2023-04-22T06:22:07.563Z,14824.00
2023-04-22T06:23:07.548Z,10220.00
2023-04-22T06:24:07.538Z,10228.00
2023-04-22T06:25:07.523Z,11344.00
2023-04-22T06:26:07.510Z,11932.00
2023-04-22T06:27:07.515Z,12824.00
2023-04-22T06:28:07.490Z,14080.00
2023-04-22T06:29:07.469Z,17408.00
2023-04-22T06:30:07.463Z,19072.00
2023-04-22T06:31:07.488Z,20480.00
2023-04-22T06:32:07.445Z,20256.00
2023-04-22T06:33:07.500Z,19936.00
2023-04-22T06:34:07.410Z,19616.00
2023-04-22T06:35:07.389Z,21664.00
2023-04-22T06:36:07.380Z,26080.00
2023-04-22T06:37:07.378Z,27296.00
2023-04-22T06:38:07.355Z,27040.00
2023-04-22T06:39:07.346Z,27200.00
2023-04-22T06:40:07.334Z,15380.00
2023-04-22T06:41:07.314Z,25440.00
2023-04-22T06:42:07.305Z,23200.00
2023-04-22T06:43:07.293Z,25120.00
2023-04-22T06:44:07.276Z,22944.00
2023-04-22T06:45:07.264Z,22880.00
2023-04-22T06:46:07.299Z,28704.00
2023-04-22T06:47:07.240Z,30368.00
2023-04-22T06:48:07.228Z,28288.00
2023-04-22T06:49:07.236Z,26784.00
2023-04-22T06:50:07.207Z,28992.00
2023-04-22T06:51:07.184Z,30272.00
2023-04-22T06:52:07.205Z,30336.00
2023-04-22T06:53:07.186Z,31328.00
2023-04-22T06:54:07.145Z,30912.00
2023-04-22T06:55:07.137Z,30336.00
2023-04-22T06:56:07.123Z,31008.00
2023-04-22T06:57:07.105Z,29024.00
2023-04-22T06:58:07.109Z,20352.00
2023-04-22T06:59:07.083Z,14136.00
2023-04-22T07:00:07.084Z,13292.00
2023-04-22T07:01:07.057Z,14460.00
2023-04-22T07:02:07.194Z,18464.00
2023-04-22T07:03:07.125Z,16768.00
2023-04-22T07:04:07.055Z,15020.00
2023-04-22T07:05:07.027Z,16736.00
2023-04-22T07:06:06.988Z,20096.00
2023-04-22T07:07:06.977Z,18688.00
2023-04-22T07:08:06.969Z,32928.00
2023-04-22T07:09:06.948Z,32512.00
2023-04-22T07:10:06.936Z,24384.00
2023-04-22T07:11:06.941Z,23872.00
2023-04-22T07:12:06.910Z,25056.00
2023-04-22T07:13:06.915Z,20576.00
2023-04-22T07:14:06.885Z,22848.00
2023-04-22T07:15:06.873Z,18144.00
2023-04-22T07:16:06.894Z,19744.00
2023-04-22T07:17:06.847Z,21888.00
2023-04-22T07:18:06.849Z,25504.00
2023-04-22T07:19:06.823Z,25600.00
2023-04-22T07:20:06.814Z,25248.00
2023-04-22T07:21:06.836Z,24832.00
2023-04-22T07:22:06.789Z,25280.00
2023-04-22T07:23:06.773Z,28928.00
2023-04-22T07:24:06.757Z,30080.00
2023-04-22T07:25:06.746Z,35776.00
2023-04-22T07:26:06.729Z,26528.00
2023-04-22T07:27:06.716Z,33728.00
2023-04-22T07:28:06.704Z,37760.00
2023-04-22T07:29:06.691Z,38048.00
2023-04-22T07:30:06.678Z,36960.00
2023-04-22T07:31:06.684Z,29568.00
2023-04-22T07:32:06.727Z,37344.00
2023-04-22T07:33:06.682Z,42944.00
2023-04-22T07:34:06.632Z,35776.00
2023-04-22T07:35:06.621Z,31264.00
2023-04-22T07:36:06.602Z,35776.00
2023-04-22T07:37:06.621Z,43552.00
2023-04-22T07:38:07.393Z,43840.00
2023-04-22T07:39:06.585Z,41856.00
2023-04-22T07:40:06.558Z,42816.00
2023-04-22T07:41:06.539Z,52832.00
2023-04-22T07:42:06.526Z,55712.00
2023-04-22T07:43:06.521Z,49984.00
2023-04-22T07:44:06.500Z,46720.00
2023-04-22T07:45:06.505Z,50560.00
2023-04-22T07:46:06.500Z,52096.00
2023-04-22T07:47:06.464Z,48352.00
2023-04-22T07:48:06.451Z,43808.00
2023-04-22T07:49:06.446Z,42016.00
2023-04-22T07:50:06.427Z,46656.00
2023-04-22T07:51:06.412Z,43232.00
2023-04-22T07:52:06.398Z,49408.00
2023-04-22T07:53:06.412Z,42880.00
2023-04-22T07:54:06.374Z,50400.00
2023-04-22T07:55:06.366Z,45984.00
2023-04-22T07:56:06.354Z,46368.00
2023-04-22T07:57:06.334Z,50048.00
2023-04-22T07:58:06.385Z,52512.00
2023-04-22T07:59:06.311Z,54048.00
2023-04-22T08:00:06.302Z,59424.00
2023-04-22T08:01:06.346Z,61888.00
2023-04-22T08:02:06.390Z,56608.00
2023-04-22T08:03:06.519Z,53984.00
2023-04-22T08:04:06.539Z,57248.00
2023-04-22T08:05:06.317Z,59712.00
2023-04-22T08:06:06.234Z,58016.00
2023-04-22T08:07:21.667Z,57056.00
2023-04-22T08:08:06.212Z,55680.00
2023-04-22T08:09:06.324Z,48928.00
2023-04-22T08:10:06.178Z,48608.00
2023-04-22T08:11:06.172Z,53056.00
2023-04-22T08:12:06.159Z,53728.00
2023-04-22T08:13:06.146Z,57184.00
2023-04-22T08:14:06.152Z,54752.00
2023-04-22T08:15:06.134Z,53824.00
2023-04-22T08:16:06.160Z,55744.00
2023-04-22T08:17:06.104Z,56064.00
2023-04-22T08:18:06.132Z,57472.00
2023-04-22T08:19:06.076Z,57408.00
2023-04-22T08:20:07.943Z,56800.00
2023-04-22T08:21:06.050Z,51040.00
2023-04-22T08:22:06.048Z,49984.00
2023-04-22T08:23:06.030Z,53472.00
2023-04-22T08:24:06.015Z,49344.00
2023-04-22T08:25:06.023Z,52480.00
2023-04-22T08:26:05.993Z,53216.00
2023-04-22T08:27:05.988Z,55648.00
2023-04-22T08:28:05.970Z,57440.00
2023-04-22T08:29:05.958Z,58848.00
2023-04-22T08:30:05.954Z,57920.00
2023-04-22T08:31:05.943Z,56896.00
2023-04-22T08:32:05.931Z,55296.00
2023-04-22T08:33:05.910Z,53792.00
2023-04-22T08:35:05.908Z,55392.00
2023-04-22T08:36:05.871Z,55072.00
2023-04-22T08:37:05.861Z,57376.00
2023-04-22T08:38:05.847Z,56640.00
2023-04-22T08:39:05.836Z,54752.00
2023-04-22T08:40:05.819Z,51680.00
2023-04-22T08:41:05.840Z,46912.00
2023-04-22T08:42:05.827Z,48160.00
2023-04-22T08:43:05.800Z,49824.00
2023-04-22T08:44:05.779Z,48928.00
2023-04-22T08:45:05.787Z,49280.00
2023-04-22T08:46:05.911Z,48448.00
2023-04-22T08:47:05.962Z,50112.00
2023-04-22T08:48:05.764Z,48160.00
2023-04-22T08:49:05.720Z,46912.00
2023-04-22T08:50:05.713Z,48960.00
2023-04-22T08:51:05.691Z,50208.00
2023-04-22T08:52:05.687Z,49440.00
2023-04-22T08:53:05.673Z,47392.00
2023-04-22T08:54:05.660Z,48192.00
2023-04-22T08:55:05.645Z,45696.00
2023-04-22T08:56:05.641Z,44000.00
2023-04-22T08:57:05.641Z,42944.00
2023-04-22T08:58:05.609Z,39200.00
2023-04-22T08:59:05.595Z,41280.00
2023-04-22T09:00:05.603Z,46912.00
2023-04-22T09:01:05.582Z,48608.00
2023-04-22T09:02:05.646Z,50848.00
2023-04-22T09:03:05.673Z,49920.00
2023-04-22T09:04:05.616Z,51552.00
2023-04-22T09:05:05.536Z,53920.00
2023-04-22T09:06:05.522Z,56448.00
2023-04-22T09:07:05.499Z,56928.00
2023-04-22T09:08:05.508Z,56288.00
2023-04-22T09:09:05.485Z,62688.00
2023-04-22T09:10:05.458Z,62176.00
2023-04-22T09:11:05.447Z,62144.00
2023-04-22T09:12:05.461Z,49664.00
2023-04-22T09:13:05.456Z,48608.00
2023-04-22T09:14:05.416Z,42304.00
2023-04-22T09:15:05.400Z,38912.00
2023-04-22T09:16:05.434Z,39776.00
2023-04-22T09:17:05.375Z,38592.00
2023-04-22T09:18:05.378Z,35456.00
2023-04-22T09:19:05.346Z,37696.00
2023-04-22T09:20:05.339Z,34272.00
2023-04-22T09:21:05.359Z,36512.00
2023-04-22T09:22:05.309Z,36608.00
2023-04-22T09:23:05.320Z,32224.00
2023-04-22T09:24:05.285Z,30176.00
2023-04-22T09:25:05.276Z,31392.00
2023-04-22T09:26:05.263Z,32352.00
2023-04-22T09:27:05.249Z,27008.00
2023-04-22T09:28:05.235Z,24608.00
2023-04-22T09:29:05.256Z,24448.00
2023-04-22T09:30:05.218Z,26240.00
2023-04-22T09:31:05.200Z,26944.00
2023-04-22T09:32:05.197Z,27360.00
2023-04-22T09:33:05.246Z,28224.00
2023-04-22T09:34:05.162Z,33472.00
2023-04-22T09:35:05.149Z,30592.00
2023-04-22T09:36:05.136Z,37344.00
2023-04-22T09:37:05.127Z,29472.00
2023-04-22T09:38:05.117Z,35072.00
2023-04-22T09:39:05.124Z,32896.00
2023-04-22T09:40:05.094Z,32032.00
2023-04-22T09:41:05.077Z,39712.00
2023-04-22T09:42:05.063Z,43904.00
2023-04-22T09:43:05.070Z,37344.00
2023-04-22T09:44:05.039Z,36960.00
2023-04-22T09:45:05.067Z,36160.00
2023-04-22T09:46:05.081Z,36032.00
2023-04-22T09:47:05.006Z,38368.00
2023-04-22T09:48:05.000Z,35296.00
2023-04-22T09:49:04.980Z,29920.00
2023-04-22T09:50:04.991Z,29600.00
2023-04-22T09:51:04.955Z,28960.00
2023-04-22T09:52:04.940Z,29472.00
2023-04-22T09:53:04.941Z,34304.00
2023-04-22T09:54:04.921Z,35232.00
2023-04-22T09:55:04.907Z,50144.00
2023-04-22T09:56:04.894Z,38208.00
2023-04-22T09:57:05.728Z,50560.00
2023-04-22T09:58:04.870Z,31328.00
2023-04-22T09:59:04.857Z,35840.00
2023-04-22T10:00:04.846Z,40416.00
2023-04-22T10:01:04.879Z,34912.00
2023-04-22T10:02:04.851Z,39936.00
2023-04-22T10:03:05.445Z,30080.00
2023-04-22T10:04:04.808Z,29760.00
2023-04-22T10:05:04.791Z,29024.00
2023-04-22T10:06:04.768Z,29888.00
2023-04-22T10:07:04.770Z,29760.00
2023-04-22T10:08:04.774Z,32768.00
2023-04-22T10:09:04.741Z,31616.00
2023-04-22T10:10:04.724Z,31200.00
2023-04-22T10:11:04.729Z,32640.00
2023-04-22T10:12:04.701Z,34720.00
2023-04-22T10:13:04.691Z,33632.00
2023-04-22T10:14:04.676Z,38208.00
2023-04-22T10:15:04.660Z,40096.00
2023-04-22T10:16:04.656Z,36768.00
2023-04-22T10:17:04.727Z,37472.00
2023-04-22T10:18:04.688Z,43392.00
2023-04-22T10:19:04.617Z,52992.00
2023-04-22T10:20:04.608Z,38400.00
2023-04-22T10:21:04.592Z,37888.00
2023-04-22T10:22:04.574Z,36000.00
2023-04-22T10:23:04.562Z,46592.00
2023-04-22T10:24:04.558Z,39264.00
2023-04-22T10:25:04.537Z,47296.00
2023-04-22T10:26:04.522Z,51680.00
2023-04-22T10:27:04.516Z,44224.00
2023-04-22T10:28:04.503Z,46016.00
2023-04-22T10:29:04.485Z,51904.00
2023-04-22T10:30:04.499Z,51584.00
2023-04-22T10:31:04.492Z,48736.00
2023-04-22T10:32:04.450Z,50752.00
2023-04-22T10:33:04.566Z,48736.00
2023-04-22T10:34:04.429Z,51168.00
2023-04-22T10:35:04.413Z,48832.00
2023-04-22T10:36:04.402Z,56416.00
2023-04-22T10:37:04.393Z,56800.00
2023-04-22T10:38:04.375Z,47168.00
2023-04-22T10:39:04.362Z,47680.00
2023-04-22T10:40:04.351Z,42400.00
2023-04-22T10:41:04.354Z,42944.00
2023-04-22T10:42:04.327Z,33216.00
2023-04-22T10:43:04.316Z,25056.00
2023-04-22T10:44:04.312Z,20416.00
2023-04-22T10:45:04.290Z,18560.00
2023-04-22T10:46:04.288Z,18528.00
2023-04-22T10:47:04.262Z,20064.00
2023-04-22T10:48:04.263Z,28672.00
2023-04-22T10:49:05.616Z,32288.00
2023-04-22T10:50:04.224Z,41120.00
2023-04-22T10:51:04.222Z,40736.00
2023-04-22T10:52:04.211Z,42656.00
2023-04-22T10:53:04.202Z,61056.00
2023-04-22T10:54:04.180Z,67008.00
2023-04-22T10:55:04.169Z,62880.00
2023-04-22T10:56:04.166Z,55520.00
2023-04-22T10:57:04.145Z,46688.00
2023-04-22T10:58:04.129Z,44864.00
2023-04-22T10:59:04.124Z,54784.00
2023-04-22T11:00:04.104Z,58592.00
2023-04-22T11:01:04.092Z,60608.00
2023-04-22T11:02:04.127Z,61856.00
2023-04-22T11:03:04.154Z,50848.00
2023-04-22T11:04:04.148Z,45664.00
2023-04-22T11:05:04.069Z,41920.00
2023-04-22T11:06:04.035Z,50112.00
2023-04-22T11:07:04.020Z,56640.00
2023-04-22T11:08:04.009Z,56480.00
2023-04-22T11:09:03.994Z,48576.00
2023-04-22T11:10:03.986Z,63872.00
2023-04-22T11:11:03.971Z,61664.00
2023-04-22T11:12:03.961Z,54624.00
2023-04-22T11:13:03.946Z,55072.00
2023-04-22T11:14:03.936Z,53152.00
2023-04-22T11:15:03.922Z,58080.00
2023-04-22T11:16:03.970Z,67072.00
2023-04-22T11:17:03.898Z,65376.00
2023-04-22T11:18:03.884Z,63680.00
2023-04-22T11:19:03.900Z,53920.00
2023-04-22T11:20:03.871Z,43968.00
2023-04-22T11:21:03.882Z,40480.00
2023-04-22T11:22:03.841Z,40192.00
2023-04-22T11:23:03.823Z,43584.00
2023-04-22T11:24:03.818Z,43424.00
2023-04-22T11:25:03.801Z,63232.00
2023-04-22T11:26:03.803Z,62976.00
2023-04-22T11:27:03.782Z,60864.00
2023-04-22T11:28:03.761Z,59968.00
2023-04-22T11:29:03.752Z,61984.00
2023-04-22T11:30:03.767Z,50656.00
2023-04-22T11:31:03.728Z,64928.00
2023-04-22T11:32:03.759Z,53120.00
2023-04-22T11:33:03.757Z,59840.00
2023-04-22T11:34:03.694Z,61792.00
2023-04-22T11:36:03.674Z,56128.00
2023-04-22T11:37:03.683Z,57600.00
2023-04-22T11:38:03.639Z,54944.00
2023-04-22T11:39:03.631Z,49824.00
2023-04-22T11:41:03.609Z,41792.00
2023-04-22T11:42:03.595Z,48192.00
2023-04-22T11:43:03.573Z,24960.00
2023-04-22T11:44:03.573Z,56480.00
2023-04-22T11:45:03.552Z,58400.00
2023-04-22T11:46:03.590Z,58304.00
2023-04-22T11:47:03.528Z,50336.00
2023-04-22T11:48:03.520Z,58112.00
2023-04-22T11:49:03.505Z,29760.00
2023-04-22T11:50:03.497Z,23488.00
2023-04-22T11:51:03.477Z,61280.00
2023-04-22T11:52:03.465Z,51776.00
2023-04-22T11:53:03.502Z,25536.00
2023-04-22T11:54:03.444Z,62272.00
2023-04-22T11:55:03.437Z,60288.00
2023-04-22T11:56:03.418Z,58336.00
2023-04-22T11:57:03.402Z,57984.00
2023-04-22T11:58:03.389Z,57312.00
2023-04-22T11:59:03.377Z,59328.00
2023-04-22T12:00:03.370Z,56576.00
2023-04-22T12:01:03.355Z,53952.00
2023-04-22T12:02:03.392Z,33728.00
2023-04-22T12:03:03.462Z,54112.00
2023-04-22T12:04:03.453Z,54176.00
2023-04-22T12:05:03.324Z,57184.00
2023-04-22T12:06:03.290Z,57216.00
2023-04-22T12:07:03.282Z,25088.00
2023-04-22T12:08:03.266Z,19552.00
2023-04-22T12:09:03.288Z,20928.00
2023-04-22T12:10:03.246Z,57600.00
2023-04-22T12:11:03.241Z,51808.00
2023-04-22T12:12:03.217Z,54592.00
2023-04-22T12:13:03.201Z,21312.00
2023-04-22T12:14:03.195Z,56320.00
2023-04-22T12:15:03.178Z,58880.00
2023-04-22T12:16:03.179Z,31488.00
2023-04-22T12:17:03.220Z,54208.00
2023-04-22T12:18:03.146Z,54368.00
2023-04-22T12:19:03.136Z,56128.00
2023-04-22T12:20:03.154Z,52224.00
2023-04-22T12:21:03.110Z,57120.00
2023-04-22T12:22:03.097Z,60416.00
2023-04-22T12:23:03.082Z,59552.00
2023-04-22T12:24:03.071Z,58848.00
2023-04-22T12:25:03.090Z,30112.00